sensor_id;sensor_type;location;lat;lon;timestamp;pressure;altitude;pressure_sealevel;temperature;humidity
64141;BME280;50436;50.618;7.932;2023-08-31T00:02:39;95884.50;;;10.24;100.00
64141;BME280;50436;50.618;7.932;2023-08-31T00:05:26;95872.41;;;10.16;100.00
64141;BME280;50436;50.618;7.932;2023-08-31T00:08:14;95879.63;;;10.16;100.00
64141;BME280;50436;50.618;7.932;2023-08-31T00:11:00;95890.06;;;10.17;100.00
64141;BME280;50436;50.618;7.932;2023-08-31T00:13:46;95888.19;;;10.18;100.00
64141;BME280;50436;50.618;7.932;2023-08-31T00:16:32;95895.59;;;10.43;100.00
64141;BME280;50436;50.618;7.932;2023-08-31T00:19:19;95894.59;;;10.59;100.00
64141;BME280;50436;50.618;7.932;2023-08-31T00:22:05;95886.03;;;10.62;100.00
64141;BME280;50436;50.618;7.932;2023-08-31T00:24:50;95887.00;;;10.41;100.00
64141;BME280;50436;50.618;7.932;2023-08-31T00:27:36;95881.63;;;10.30;100.00
64141;BME280;50436;50.618;7.932;2023-08-31T00:30:23;95886.91;;;10.25;100.00
64141;BME280;50436;50.618;7.932;2023-08-31T00:33:14;95881.56;;;10.25;100.00
64141;BME280;50436;50.618;7.932;2023-08-31T00:36:01;95880.50;;;10.26;100.00
64141;BME280;50436;50.618;7.932;2023-08-31T00:38:47;95883.22;;;10.31;100.00
64141;BME280;50436;50.618;7.932;2023-08-31T00:41:32;95884.31;;;10.36;100.00
64141;BME280;50436;50.618;7.932;2023-08-31T00:44:18;95884.31;;;10.41;100.00
64141;BME280;50436;50.618;7.932;2023-08-31T00:47:07;95882.44;;;10.36;100.00
64141;BME280;50436;50.618;7.932;2023-08-31T00:49:53;95896.31;;;10.28;100.00
64141;BME280;50436;50.618;7.932;2023-08-31T00:52:41;95895.75;;;10.26;100.00
64141;BME280;50436;50.618;7.932;2023-08-31T00:55:28;95905.38;;;10.27;100.00
64141;BME280;50436;50.618;7.932;2023-08-31T00:58:14;95903.91;;;10.04;100.00
64141;BME280;50436;50.618;7.932;2023-08-31T01:01:25;95899.91;;;10.07;100.00
64141;BME280;50436;50.618;7.932;2023-08-31T01:04:22;95908.16;;;10.00;100.00
64141;BME280;50436;50.618;7.932;2023-08-31T01:07:31;95901.16;;;9.94;100.00
64141;BME280;50436;50.618;7.932;2023-08-31T01:10:37;95902.16;;;9.83;100.00
64141;BME280;50436;50.618;7.932;2023-08-31T01:13:29;95901.31;;;9.77;100.00
64141;BME280;50436;50.618;7.932;2023-08-31T01:16:16;95900.50;;;9.76;100.00
64141;BME280;50436;50.618;7.932;2023-08-31T01:19:11;95903.22;;;9.82;100.00
64141;BME280;50436;50.618;7.932;2023-08-31T01:22:05;95906.22;;;9.90;100.00
64141;BME280;50436;50.618;7.932;2023-08-31T01:24:53;95896.34;;;9.96;100.00
64141;BME280;50436;50.618;7.932;2023-08-31T01:27:41;95890.19;;;9.95;100.00
64141;BME280;50436;50.618;7.932;2023-08-31T01:30:30;95892.59;;;9.92;100.00
64141;BME280;50436;50.618;7.932;2023-08-31T01:33:16;95895.03;;;9.98;100.00
64141;BME280;50436;50.618;7.932;2023-08-31T01:36:29;95895.84;;;9.99;100.00
64141;BME280;50436;50.618;7.932;2023-08-31T01:39:20;95906.00;;;9.97;100.00
64141;BME280;50436;50.618;7.932;2023-08-31T01:42:07;95900.06;;;9.90;100.00
64141;BME280;50436;50.618;7.932;2023-08-31T01:44:56;95902.41;;;9.81;100.00
64141;BME280;50436;50.618;7.932;2023-08-31T01:47:43;95897.28;;;9.74;100.00
64141;BME280;50436;50.618;7.932;2023-08-31T01:50:29;95909.44;;;9.92;100.00
64141;BME280;50436;50.618;7.932;2023-08-31T01:53:15;95912.38;;;9.91;100.00
64141;BME280;50436;50.618;7.932;2023-08-31T01:56:02;95907.88;;;10.01;100.00
64141;BME280;50436;50.618;7.932;2023-08-31T01:58:48;95892.94;;;10.05;100.00
64141;BME280;50436;50.618;7.932;2023-08-31T02:01:33;95892.16;;;10.05;100.00
64141;BME280;50436;50.618;7.932;2023-08-31T02:04:20;95882.00;;;10.07;100.00
64141;BME280;50436;50.618;7.932;2023-08-31T02:07:06;95890.88;;;10.18;100.00
64141;BME280;50436;50.618;7.932;2023-08-31T02:09:53;95882.91;;;10.23;100.00
64141;BME280;50436;50.618;7.932;2023-08-31T02:12:39;95888.00;;;10.24;100.00
64141;BME280;50436;50.618;7.932;2023-08-31T02:15:25;95893.38;;;10.29;100.00
64141;BME280;50436;50.618;7.932;2023-08-31T02:18:11;95890.13;;;10.22;100.00
64141;BME280;50436;50.618;7.932;2023-08-31T02:20:57;95889.25;;;10.17;100.00
64141;BME280;50436;50.618;7.932;2023-08-31T02:23:43;95901.72;;;10.01;100.00
64141;BME280;50436;50.618;7.932;2023-08-31T02:26:29;95910.13;;;9.77;100.00
64141;BME280;50436;50.618;7.932;2023-08-31T02:29:14;95912.75;;;9.72;100.00
64141;BME280;50436;50.618;7.932;2023-08-31T02:32:04;95913.31;;;9.74;100.00
64141;BME280;50436;50.618;7.932;2023-08-31T02:34:50;95913.06;;;9.76;100.00
64141;BME280;50436;50.618;7.932;2023-08-31T02:37:36;95918.19;;;9.83;100.00
64141;BME280;50436;50.618;7.932;2023-08-31T02:40:22;95911.56;;;9.90;100.00
64141;BME280;50436;50.618;7.932;2023-08-31T02:43:10;95918.78;;;9.95;100.00
64141;BME280;50436;50.618;7.932;2023-08-31T02:46:00;95915.34;;;9.99;100.00
64141;BME280;50436;50.618;7.932;2023-08-31T02:48:46;95915.88;;;9.96;100.00
64141;BME280;50436;50.618;7.932;2023-08-31T02:51:34;95918.66;;;10.12;100.00
64141;BME280;50436;50.618;7.932;2023-08-31T02:54:20;95925.63;;;10.18;100.00
64141;BME280;50436;50.618;7.932;2023-08-31T02:57:06;95915.00;;;10.23;100.00
64141;BME280;50436;50.618;7.932;2023-08-31T02:59:53;95918.25;;;10.30;100.00
64141;BME280;50436;50.618;7.932;2023-08-31T03:02:39;95918.66;;;10.12;100.00
64141;BME280;50436;50.618;7.932;2023-08-31T03:05:25;95919.31;;;9.92;100.00
64141;BME280;50436;50.618;7.932;2023-08-31T03:08:11;95919.00;;;9.88;100.00
64141;BME280;50436;50.618;7.932;2023-08-31T03:10:57;95912.66;;;9.94;100.00
64141;BME280;50436;50.618;7.932;2023-08-31T03:13:44;95922.03;;;9.97;100.00
64141;BME280;50436;50.618;7.932;2023-08-31T03:16:31;95920.00;;;10.14;100.00
64141;BME280;50436;50.618;7.932;2023-08-31T03:19:17;95911.25;;;10.24;100.00
64141;BME280;50436;50.618;7.932;2023-08-31T03:22:03;95911.03;;;10.30;100.00
64141;BME280;50436;50.618;7.932;2023-08-31T03:24:49;95911.59;;;10.38;100.00
64141;BME280;50436;50.618;7.932;2023-08-31T03:27:35;95906.25;;;10.38;100.00
64141;BME280;50436;50.618;7.932;2023-08-31T03:30:21;95910.50;;;10.28;100.00
64141;BME280;50436;50.618;7.932;2023-08-31T03:33:07;95915.28;;;10.26;100.00
64141;BME280;50436;50.618;7.932;2023-08-31T03:35:56;95916.28;;;10.20;100.00
64141;BME280;50436;50.618;7.932;2023-08-31T03:38:45;95906.91;;;10.18;100.00
64141;BME280;50436;50.618;7.932;2023-08-31T03:41:30;95917.91;;;10.21;100.00
64141;BME280;50436;50.618;7.932;2023-08-31T03:44:20;95915.22;;;10.21;100.00
64141;BME280;50436;50.618;7.932;2023-08-31T03:47:06;95917.19;;;10.31;100.00
64141;BME280;50436;50.618;7.932;2023-08-31T03:49:52;95919.81;;;10.26;100.00
64141;BME280;50436;50.618;7.932;2023-08-31T03:52:40;95920.63;;;10.26;100.00
64141;BME280;50436;50.618;7.932;2023-08-31T03:55:25;95922.22;;;10.22;100.00
64141;BME280;50436;50.618;7.932;2023-08-31T03:58:12;95935.00;;;10.20;100.00
64141;BME280;50436;50.618;7.932;2023-08-31T04:00:59;95933.38;;;10.14;100.00
64141;BME280;50436;50.618;7.932;2023-08-31T04:03:45;95940.31;;;10.15;100.00
64141;BME280;50436;50.618;7.932;2023-08-31T04:06:31;95926.09;;;10.04;100.00
64141;BME280;50436;50.618;7.932;2023-08-31T04:09:16;95940.47;;;9.98;100.00
64141;BME280;50436;50.618;7.932;2023-08-31T04:12:03;95945.81;;;9.98;100.00
64141;BME280;50436;50.618;7.932;2023-08-31T04:14:50;95957.09;;;10.05;100.00
64141;BME280;50436;50.618;7.932;2023-08-31T04:17:36;95948.22;;;10.00;100.00
64141;BME280;50436;50.618;7.932;2023-08-31T04:20:25;95945.72;;;9.83;100.00
64141;BME280;50436;50.618;7.932;2023-08-31T04:23:11;95957.50;;;9.87;100.00
64141;BME280;50436;50.618;7.932;2023-08-31T04:25:56;95958.66;;;10.01;100.00
64141;BME280;50436;50.618;7.932;2023-08-31T04:28:43;95960.53;;;10.01;100.00
64141;BME280;50436;50.618;7.932;2023-08-31T04:31:29;95965.53;;;10.24;100.00
64141;BME280;50436;50.618;7.932;2023-08-31T04:34:15;95966.66;;;10.33;100.00
64141;BME280;50436;50.618;7.932;2023-08-31T04:37:01;95955.22;;;10.43;100.00
64141;BME280;50436;50.618;7.932;2023-08-31T04:39:47;95960.06;;;10.46;100.00
64141;BME280;50436;50.618;7.932;2023-08-31T04:42:33;95968.31;;;10.40;100.00
64141;BME280;50436;50.618;7.932;2023-08-31T04:45:19;95966.13;;;10.31;100.00
64141;BME280;50436;50.618;7.932;2023-08-31T04:48:05;95977.13;;;10.40;100.00
64141;BME280;50436;50.618;7.932;2023-08-31T04:50:56;95965.13;;;10.48;100.00
64141;BME280;50436;50.618;7.932;2023-08-31T04:53:42;95968.44;;;10.60;100.00
64141;BME280;50436;50.618;7.932;2023-08-31T04:56:31;95974.84;;;10.59;100.00
64141;BME280;50436;50.618;7.932;2023-08-31T04:59:18;95970.53;;;10.58;100.00
64141;BME280;50436;50.618;7.932;2023-08-31T05:02:03;95976.16;;;10.56;100.00
64141;BME280;50436;50.618;7.932;2023-08-31T05:04:51;95972.41;;;10.52;100.00
64141;BME280;50436;50.618;7.932;2023-08-31T05:07:37;95987.88;;;10.45;100.00
64141;BME280;50436;50.618;7.932;2023-08-31T05:10:23;95983.44;;;10.24;100.00
64141;BME280;50436;50.618;7.932;2023-08-31T05:13:09;95988.53;;;10.25;100.00
64141;BME280;50436;50.618;7.932;2023-08-31T05:15:54;95990.72;;;10.33;100.00
64141;BME280;50436;50.618;7.932;2023-08-31T05:18:40;95993.44;;;10.39;100.00
64141;BME280;50436;50.618;7.932;2023-08-31T05:21:26;96006.88;;;10.49;100.00
64141;BME280;50436;50.618;7.932;2023-08-31T05:24:12;96005.53;;;10.46;100.00
64141;BME280;50436;50.618;7.932;2023-08-31T05:26:58;96007.41;;;10.46;100.00
64141;BME280;50436;50.618;7.932;2023-08-31T05:29:44;96007.84;;;10.32;100.00
64141;BME280;50436;50.618;7.932;2023-08-31T05:32:30;96004.31;;;10.27;100.00
64141;BME280;50436;50.618;7.932;2023-08-31T05:35:15;96013.78;;;10.40;100.00
64141;BME280;50436;50.618;7.932;2023-08-31T05:38:01;96021.31;;;10.43;100.00
64141;BME280;50436;50.618;7.932;2023-08-31T05:40:48;96020.72;;;10.41;100.00
64141;BME280;50436;50.618;7.932;2023-08-31T05:43:35;96022.22;;;10.64;100.00
64141;BME280;50436;50.618;7.932;2023-08-31T05:46:21;96022.53;;;10.72;100.00
64141;BME280;50436;50.618;7.932;2023-08-31T05:49:07;96029.16;;;10.65;100.00
64141;BME280;50436;50.618;7.932;2023-08-31T05:51:53;96030.31;;;10.31;100.00
64141;BME280;50436;50.618;7.932;2023-08-31T05:54:39;96031.44;;;10.41;100.00
64141;BME280;50436;50.618;7.932;2023-08-31T05:57:25;96034.69;;;10.16;100.00
64141;BME280;50436;50.618;7.932;2023-08-31T06:00:13;96033.94;;;10.20;100.00
64141;BME280;50436;50.618;7.932;2023-08-31T06:03:00;96020.94;;;10.34;100.00
64141;BME280;50436;50.618;7.932;2023-08-31T06:05:46;96020.81;;;10.56;100.00
64141;BME280;50436;50.618;7.932;2023-08-31T06:08:31;96030.19;;;10.53;100.00
64141;BME280;50436;50.618;7.932;2023-08-31T06:11:17;96040.19;;;10.31;100.00
64141;BME280;50436;50.618;7.932;2023-08-31T06:14:03;96038.59;;;10.30;100.00
64141;BME280;50436;50.618;7.932;2023-08-31T06:16:49;96044.19;;;10.28;100.00
64141;BME280;50436;50.618;7.932;2023-08-31T06:19:35;96035.75;;;10.47;100.00
64141;BME280;50436;50.618;7.932;2023-08-31T06:22:24;96048.53;;;10.40;100.00
64141;BME280;50436;50.618;7.932;2023-08-31T06:25:10;96050.88;;;10.31;100.00
64141;BME280;50436;50.618;7.932;2023-08-31T06:27:56;96055.97;;;10.27;100.00
64141;BME280;50436;50.618;7.932;2023-08-31T06:30:42;96044.81;;;10.41;100.00
64141;BME280;50436;50.618;7.932;2023-08-31T06:33:32;96062.88;;;10.66;100.00
64141;BME280;50436;50.618;7.932;2023-08-31T06:36:20;96051.81;;;10.94;100.00
64141;BME280;50436;50.618;7.932;2023-08-31T06:39:06;96058.38;;;10.66;100.00
64141;BME280;50436;50.618;7.932;2023-08-31T06:41:52;96061.19;;;10.92;100.00
64141;BME280;50436;50.618;7.932;2023-08-31T06:44:37;96064.44;;;10.99;100.00
64141;BME280;50436;50.618;7.932;2023-08-31T06:47:23;96061.75;;;10.99;100.00
64141;BME280;50436;50.618;7.932;2023-08-31T06:50:09;96068.22;;;11.08;100.00
64141;BME280;50436;50.618;7.932;2023-08-31T06:52:55;96072.47;;;11.04;100.00
64141;BME280;50436;50.618;7.932;2023-08-31T06:55:41;96067.72;;;11.16;100.00
64141;BME280;50436;50.618;7.932;2023-08-31T06:58:27;96066.94;;;11.21;100.00
64141;BME280;50436;50.618;7.932;2023-08-31T07:01:13;96072.31;;;11.26;100.00
64141;BME280;50436;50.618;7.932;2023-08-31T07:03:59;96076.91;;;11.40;100.00
64141;BME280;50436;50.618;7.932;2023-08-31T07:06:44;96075.56;;;11.33;100.00
64141;BME280;50436;50.618;7.932;2023-08-31T07:09:30;96080.44;;;11.46;100.00
64141;BME280;50436;50.618;7.932;2023-08-31T07:12:16;96081.56;;;11.60;100.00
64141;BME280;50436;50.618;7.932;2023-08-31T07:15:02;96075.75;;;11.94;100.00
64141;BME280;50436;50.618;7.932;2023-08-31T07:17:49;96075.13;;;11.71;100.00
64141;BME280;50436;50.618;7.932;2023-08-31T07:20:35;96074.16;;;12.03;100.00
64141;BME280;50436;50.618;7.932;2023-08-31T07:23:20;96071.22;;;12.15;100.00
64141;BME280;50436;50.618;7.932;2023-08-31T07:26:06;96079.81;;;12.07;100.00
64141;BME280;50436;50.618;7.932;2023-08-31T07:28:52;96073.88;;;11.99;100.00
64141;BME280;50436;50.618;7.932;2023-08-31T07:31:38;96076.03;;;12.13;100.00
64141;BME280;50436;50.618;7.932;2023-08-31T07:34:24;96077.13;;;12.27;100.00
64141;BME280;50436;50.618;7.932;2023-08-31T07:37:10;96085.69;;;12.14;100.00
64141;BME280;50436;50.618;7.932;2023-08-31T07:39:56;96089.72;;;12.62;100.00
64141;BME280;50436;50.618;7.932;2023-08-31T07:42:42;96081.03;;;13.11;100.00
64141;BME280;50436;50.618;7.932;2023-08-31T07:45:27;96090.94;;;13.31;100.00
64141;BME280;50436;50.618;7.932;2023-08-31T07:48:16;96086.50;;;13.65;100.00
64141;BME280;50436;50.618;7.932;2023-08-31T07:51:02;96086.81;;;13.54;100.00
64141;BME280;50436;50.618;7.932;2023-08-31T07:53:49;96088.69;;;13.58;100.00
64141;BME280;50436;50.618;7.932;2023-08-31T07:56:35;96094.97;;;13.93;100.00
64141;BME280;50436;50.618;7.932;2023-08-31T07:59:21;96101.50;;;14.16;100.00
64141;BME280;50436;50.618;7.932;2023-08-31T08:02:06;96099.09;;;14.14;100.00
64141;BME280;50436;50.618;7.932;2023-08-31T08:04:53;96101.03;;;14.09;100.00
64141;BME280;50436;50.618;7.932;2023-08-31T08:07:38;96096.88;;;13.82;100.00
64141;BME280;50436;50.618;7.932;2023-08-31T08:10:28;96112.16;;;13.92;100.00
64141;BME280;50436;50.618;7.932;2023-08-31T08:13:15;96108.47;;;14.22;100.00
64141;BME280;50436;50.618;7.932;2023-08-31T08:16:01;96110.53;;;13.96;100.00
64141;BME280;50436;50.618;7.932;2023-08-31T08:18:47;96121.38;;;13.76;100.00
64141;BME280;50436;50.618;7.932;2023-08-31T08:21:33;96110.16;;;13.63;100.00
64141;BME280;50436;50.618;7.932;2023-08-31T08:24:19;96119.41;;;13.97;100.00
64141;BME280;50436;50.618;7.932;2023-08-31T08:27:05;96120.22;;;13.97;100.00
64141;BME280;50436;50.618;7.932;2023-08-31T08:29:50;96124.34;;;14.63;100.00
64141;BME280;50436;50.618;7.932;2023-08-31T08:32:36;96132.72;;;14.61;100.00
64141;BME280;50436;50.618;7.932;2023-08-31T08:35:22;96132.31;;;14.39;100.00
64141;BME280;50436;50.618;7.932;2023-08-31T08:38:08;96133.09;;;14.44;100.00
64141;BME280;50436;50.618;7.932;2023-08-31T08:40:54;96129.09;;;14.37;100.00
64141;BME280;50436;50.618;7.932;2023-08-31T08:43:45;96131.31;;;13.85;100.00
64141;BME280;50436;50.618;7.932;2023-08-31T08:46:32;96151.03;;;13.60;100.00
64141;BME280;50436;50.618;7.932;2023-08-31T08:49:19;96143.28;;;13.49;100.00
64141;BME280;50436;50.618;7.932;2023-08-31T08:52:06;96137.72;;;13.94;100.00
64141;BME280;50436;50.618;7.932;2023-08-31T08:54:53;96144.28;;;13.68;100.00
64141;BME280;50436;50.618;7.932;2023-08-31T08:57:39;96138.16;;;13.57;100.00
64141;BME280;50436;50.618;7.932;2023-08-31T09:00:26;96142.66;;;13.72;100.00
64141;BME280;50436;50.618;7.932;2023-08-31T09:03:13;96139.16;;;14.21;100.00
64141;BME280;50436;50.618;7.932;2023-08-31T09:05:59;96146.66;;;14.29;100.00
64141;BME280;50436;50.618;7.932;2023-08-31T09:08:53;96137.69;;;14.39;100.00
64141;BME280;50436;50.618;7.932;2023-08-31T09:11:40;96142.81;;;14.80;100.00
64141;BME280;50436;50.618;7.932;2023-08-31T09:14:26;96140.72;;;14.71;100.00
64141;BME280;50436;50.618;7.932;2023-08-31T09:17:12;96150.31;;;15.12;100.00
64141;BME280;50436;50.618;7.932;2023-08-31T09:19:59;96150.75;;;14.95;100.00
64141;BME280;50436;50.618;7.932;2023-08-31T09:22:45;96146.09;;;15.29;100.00
64141;BME280;50436;50.618;7.932;2023-08-31T09:25:31;96148.91;;;15.19;100.00
64141;BME280;50436;50.618;7.932;2023-08-31T09:28:19;96151.00;;;15.22;100.00
64141;BME280;50436;50.618;7.932;2023-08-31T09:31:06;96157.06;;;14.41;100.00
64141;BME280;50436;50.618;7.932;2023-08-31T09:33:52;96163.41;;;15.23;100.00
64141;BME280;50436;50.618;7.932;2023-08-31T09:36:38;96155.00;;;15.01;100.00
64141;BME280;50436;50.618;7.932;2023-08-31T09:39:24;96147.78;;;14.96;100.00
64141;BME280;50436;50.618;7.932;2023-08-31T09:42:20;96152.06;;;15.50;100.00
64141;BME280;50436;50.618;7.932;2023-08-31T09:45:06;96160.03;;;15.37;100.00
64141;BME280;50436;50.618;7.932;2023-08-31T09:47:53;96168.19;;;15.55;100.00
64141;BME280;50436;50.618;7.932;2023-08-31T09:50:40;96143.41;;;15.29;100.00
64141;BME280;50436;50.618;7.932;2023-08-31T09:53:29;96149.59;;;15.30;100.00
64141;BME280;50436;50.618;7.932;2023-08-31T09:56:21;96161.84;;;16.13;100.00
64141;BME280;50436;50.618;7.932;2023-08-31T09:59:08;96155.53;;;16.93;100.00
64141;BME280;50436;50.618;7.932;2023-08-31T10:01:55;96155.59;;;16.74;100.00
64141;BME280;50436;50.618;7.932;2023-08-31T10:04:46;96163.72;;;17.20;100.00
64141;BME280;50436;50.618;7.932;2023-08-31T10:07:36;96162.88;;;16.55;100.00
64141;BME280;50436;50.618;7.932;2023-08-31T10:10:23;96167.00;;;15.91;100.00
64141;BME280;50436;50.618;7.932;2023-08-31T10:13:10;96153.69;;;15.75;100.00
64141;BME280;50436;50.618;7.932;2023-08-31T10:15:56;96158.16;;;15.85;100.00
64141;BME280;50436;50.618;7.932;2023-08-31T10:18:42;96150.75;;;15.72;100.00
64141;BME280;50436;50.618;7.932;2023-08-31T10:21:28;96160.47;;;15.97;100.00
64141;BME280;50436;50.618;7.932;2023-08-31T10:24:14;96160.91;;;16.23;100.00
64141;BME280;50436;50.618;7.932;2023-08-31T10:27:17;96162.75;;;17.30;100.00
64141;BME280;50436;50.618;7.932;2023-08-31T10:35:57;96146.34;;;17.95;100.00
64141;BME280;50436;50.618;7.932;2023-08-31T10:41:52;96159.44;;;17.33;100.00
64141;BME280;50436;50.618;7.932;2023-08-31T10:44:41;96148.31;;;19.52;100.00
64141;BME280;50436;50.618;7.932;2023-08-31T10:47:42;96151.94;;;20.35;100.00
64141;BME280;50436;50.618;7.932;2023-08-31T10:50:28;96161.66;;;18.50;100.00
64141;BME280;50436;50.618;7.932;2023-08-31T10:53:14;96156.59;;;18.34;100.00
64141;BME280;50436;50.618;7.932;2023-08-31T10:56:00;96163.00;;;17.75;100.00
64141;BME280;50436;50.618;7.932;2023-08-31T10:58:57;96157.38;;;17.85;100.00
64141;BME280;50436;50.618;7.932;2023-08-31T11:02:01;96153.38;;;18.46;100.00
64141;BME280;50436;50.618;7.932;2023-08-31T11:05:14;96152.72;;;21.05;93.93
64141;BME280;50436;50.618;7.932;2023-08-31T11:08:00;96154.28;;;19.31;97.92
64141;BME280;50436;50.618;7.932;2023-08-31T11:10:46;96156.16;;;21.57;82.03
64141;BME280;50436;50.618;7.932;2023-08-31T11:13:31;96160.09;;;19.69;97.66
64141;BME280;50436;50.618;7.932;2023-08-31T11:16:17;96161.31;;;18.65;100.00
64141;BME280;50436;50.618;7.932;2023-08-31T11:19:03;96162.69;;;17.90;100.00
64141;BME280;50436;50.618;7.932;2023-08-31T11:21:50;96165.00;;;17.83;100.00
64141;BME280;50436;50.618;7.932;2023-08-31T11:24:36;96158.25;;;18.22;100.00
64141;BME280;50436;50.618;7.932;2023-08-31T11:27:22;96170.56;;;17.45;100.00
64141;BME280;50436;50.618;7.932;2023-08-31T11:30:14;96158.91;;;20.10;100.00
64141;BME280;50436;50.618;7.932;2023-08-31T11:33:05;96168.97;;;18.63;100.00
64141;BME280;50436;50.618;7.932;2023-08-31T11:35:53;96157.25;;;18.04;100.00
64141;BME280;50436;50.618;7.932;2023-08-31T11:38:40;96167.81;;;17.78;100.00
64141;BME280;50436;50.618;7.932;2023-08-31T11:41:31;96166.53;;;16.83;100.00
64141;BME280;50436;50.618;7.932;2023-08-31T11:44:18;96169.34;;;16.91;100.00
64141;BME280;50436;50.618;7.932;2023-08-31T11:47:05;96158.63;;;17.33;100.00
64141;BME280;50436;50.618;7.932;2023-08-31T11:49:51;96167.38;;;16.97;100.00
64141;BME280;50436;50.618;7.932;2023-08-31T11:52:38;96168.00;;;16.75;100.00
64141;BME280;50436;50.618;7.932;2023-08-31T11:55:24;96158.38;;;17.02;100.00
64141;BME280;50436;50.618;7.932;2023-08-31T11:58:10;96145.28;;;16.76;100.00
64141;BME280;50436;50.618;7.932;2023-08-31T12:00:59;96143.38;;;16.77;100.00
64141;BME280;50436;50.618;7.932;2023-08-31T12:03:45;96147.50;;;16.88;100.00
64141;BME280;50436;50.618;7.932;2023-08-31T12:06:32;96140.88;;;16.80;100.00
64141;BME280;50436;50.618;7.932;2023-08-31T12:09:18;96153.69;;;16.75;100.00
64141;BME280;50436;50.618;7.932;2023-08-31T12:12:07;96143.91;;;16.60;100.00
64141;BME280;50436;50.618;7.932;2023-08-31T12:14:53;96151.84;;;16.89;100.00
64141;BME280;50436;50.618;7.932;2023-08-31T12:17:39;96151.63;;;18.14;100.00
64141;BME280;50436;50.618;7.932;2023-08-31T12:20:26;96155.81;;;18.20;100.00
64141;BME280;50436;50.618;7.932;2023-08-31T12:23:12;96146.84;;;22.47;100.00
64141;BME280;50436;50.618;7.932;2023-08-31T12:26:00;96138.72;;;23.01;100.00
64141;BME280;50436;50.618;7.932;2023-08-31T12:28:46;96141.38;;;21.11;100.00
64141;BME280;50436;50.618;7.932;2023-08-31T12:31:33;96140.94;;;19.83;100.00
64141;BME280;50436;50.618;7.932;2023-08-31T12:34:18;96146.25;;;18.95;100.00
64141;BME280;50436;50.618;7.932;2023-08-31T12:37:04;96144.56;;;18.27;100.00
64141;BME280;50436;50.618;7.932;2023-08-31T12:39:51;96137.31;;;18.14;100.00
64141;BME280;50436;50.618;7.932;2023-08-31T12:42:37;96130.63;;;18.70;100.00
64141;BME280;50436;50.618;7.932;2023-08-31T12:45:23;96125.72;;;19.65;100.00
64141;BME280;50436;50.618;7.932;2023-08-31T12:48:09;96112.00;;;20.62;100.00
64141;BME280;50436;50.618;7.932;2023-08-31T12:50:54;96118.59;;;21.42;100.00
64141;BME280;50436;50.618;7.932;2023-08-31T12:53:40;96114.88;;;21.47;100.00
64141;BME280;50436;50.618;7.932;2023-08-31T12:56:26;96121.50;;;21.20;100.00
64141;BME280;50436;50.618;7.932;2023-08-31T12:59:12;96117.84;;;21.07;100.00
64141;BME280;50436;50.618;7.932;2023-08-31T13:01:58;96118.78;;;21.20;100.00
64141;BME280;50436;50.618;7.932;2023-08-31T13:04:44;96117.56;;;25.21;94.25
64141;BME280;50436;50.618;7.932;2023-08-31T13:07:30;96106.06;;;24.48;95.38
64141;BME280;50436;50.618;7.932;2023-08-31T13:10:16;96106.50;;;22.61;93.11
64141;BME280;50436;50.618;7.932;2023-08-31T13:13:02;96111.56;;;21.24;100.00
64141;BME280;50436;50.618;7.932;2023-08-31T13:15:48;96111.81;;;20.41;100.00
64141;BME280;50436;50.618;7.932;2023-08-31T13:18:34;96106.69;;;20.82;97.44
64141;BME280;50436;50.618;7.932;2023-08-31T13:21:20;96117.03;;;21.62;93.03
64141;BME280;50436;50.618;7.932;2023-08-31T13:24:06;96109.59;;;20.60;92.09
64141;BME280;50436;50.618;7.932;2023-08-31T13:26:52;96142.81;;;19.34;96.23
64141;BME280;50436;50.618;7.932;2023-08-31T13:29:38;96139.28;;;19.03;100.00
64141;BME280;50436;50.618;7.932;2023-08-31T13:32:23;96132.69;;;18.95;100.00
64141;BME280;50436;50.618;7.932;2023-08-31T13:35:10;96134.94;;;19.24;100.00
64141;BME280;50436;50.618;7.932;2023-08-31T13:37:55;96149.50;;;19.37;100.00
64141;BME280;50436;50.618;7.932;2023-08-31T13:40:41;96132.69;;;19.97;100.00
64141;BME280;50436;50.618;7.932;2023-08-31T13:43:27;96144.13;;;20.68;96.36
64141;BME280;50436;50.618;7.932;2023-08-31T13:46:13;96151.97;;;20.44;100.00
64141;BME280;50436;50.618;7.932;2023-08-31T13:48:59;96160.28;;;19.51;100.00
64141;BME280;50436;50.618;7.932;2023-08-31T13:51:47;96158.09;;;17.91;100.00
64141;BME280;50436;50.618;7.932;2023-08-31T13:54:33;96165.84;;;16.91;100.00
64141;BME280;50436;50.618;7.932;2023-08-31T13:57:19;96159.13;;;16.88;100.00
64141;BME280;50436;50.618;7.932;2023-08-31T14:00:05;96174.16;;;16.94;100.00
64141;BME280;50436;50.618;7.932;2023-08-31T14:02:55;96179.59;;;17.54;100.00
64141;BME280;50436;50.618;7.932;2023-08-31T14:05:47;96156.84;;;17.97;100.00
64141;BME280;50436;50.618;7.932;2023-08-31T14:08:33;96158.72;;;18.37;100.00
64141;BME280;50436;50.618;7.932;2023-08-31T14:11:19;96159.72;;;20.19;100.00
64141;BME280;50436;50.618;7.932;2023-08-31T14:14:06;96160.56;;;21.79;99.79
64141;BME280;50436;50.618;7.932;2023-08-31T14:16:56;96140.88;;;21.01;100.00
64141;BME280;50436;50.618;7.932;2023-08-31T14:19:41;96158.28;;;20.30;100.00
64141;BME280;50436;50.618;7.932;2023-08-31T14:22:27;96140.84;;;19.97;100.00
64141;BME280;50436;50.618;7.932;2023-08-31T14:25:14;96146.50;;;19.07;100.00
64141;BME280;50436;50.618;7.932;2023-08-31T14:28:00;96144.44;;;20.41;100.00
64141;BME280;50436;50.618;7.932;2023-08-31T14:30:46;96132.53;;;23.25;88.21
64141;BME280;50436;50.618;7.932;2023-08-31T14:33:32;96161.09;;;21.55;99.78
64141;BME280;50436;50.618;7.932;2023-08-31T14:36:18;96144.75;;;20.39;100.00
64141;BME280;50436;50.618;7.932;2023-08-31T14:39:03;96148.28;;;19.83;100.00
64141;BME280;50436;50.618;7.932;2023-08-31T14:41:49;96141.25;;;19.73;100.00
64141;BME280;50436;50.618;7.932;2023-08-31T14:44:35;96144.63;;;19.79;100.00
64141;BME280;50436;50.618;7.932;2023-08-31T14:47:21;96147.19;;;19.84;100.00